sensor_id;sensor_type;location;lat;lon;timestamp;P1;durP1;ratioP1;P2;durP2;ratioP2
56481;SDS011;42384;45.186;19.958;2024-03-07T00:01:38;31.67;;;19.87;;
56481;SDS011;42384;45.186;19.958;2024-03-07T00:04:04;31.25;;;21.05;;
56481;SDS011;42384;45.186;19.958;2024-03-07T00:06:31;35.37;;;23.03;;
56481;SDS011;42384;45.186;19.958;2024-03-07T00:11:24;33.20;;;20.92;;
56481;SDS011;42384;45.186;19.958;2024-03-07T00:13:50;32.97;;;20.83;;
56481;SDS011;42384;45.186;19.958;2024-03-07T00:16:16;34.78;;;21.05;;
56481;SDS011;42384;45.186;19.958;2024-03-07T00:18:42;36.47;;;21.20;;
56481;SDS011;42384;45.186;19.958;2024-03-07T00:21:08;35.20;;;22.35;;
56481;SDS011;42384;45.186;19.958;2024-03-07T00:23:34;30.40;;;20.77;;
56481;SDS011;42384;45.186;19.958;2024-03-07T00:26:00;30.27;;;20.75;;
56481;SDS011;42384;45.186;19.958;2024-03-07T00:30:57;30.52;;;20.67;;
56481;SDS011;42384;45.186;19.958;2024-03-07T00:33:24;30.85;;;19.65;;
56481;SDS011;42384;45.186;19.958;2024-03-07T00:35:50;38.25;;;21.98;;
56481;SDS011;42384;45.186;19.958;2024-03-07T00:38:16;30.93;;;20.87;;
56481;SDS011;42384;45.186;19.958;2024-03-07T00:40:43;33.60;;;20.65;;
56481;SDS011;42384;45.186;19.958;2024-03-07T00:43:09;35.05;;;20.85;;
56481;SDS011;42384;45.186;19.958;2024-03-07T00:45:36;29.77;;;20.63;;
56481;SDS011;42384;45.186;19.958;2024-03-07T00:48:02;31.45;;;21.35;;
56481;SDS011;42384;45.186;19.958;2024-03-07T00:50:28;33.45;;;20.90;;
56481;SDS011;42384;45.186;19.958;2024-03-07T00:52:56;32.97;;;20.83;;
56481;SDS011;42384;45.186;19.958;2024-03-07T00:55:22;32.92;;;21.27;;
56481;SDS011;42384;45.186;19.958;2024-03-07T00:57:48;33.73;;;20.53;;
56481;SDS011;42384;45.186;19.958;2024-03-07T01:00:15;33.45;;;20.38;;
56481;SDS011;42384;45.186;19.958;2024-03-07T01:02:45;29.60;;;19.77;;
56481;SDS011;42384;45.186;19.958;2024-03-07T01:05:12;35.20;;;21.95;;
56481;SDS011;42384;45.186;19.958;2024-03-07T01:07:42;30.17;;;19.75;;
56481;SDS011;42384;45.186;19.958;2024-03-07T01:10:09;35.45;;;22.13;;
56481;SDS011;42384;45.186;19.958;2024-03-07T01:12:36;34.80;;;20.42;;
56481;SDS011;42384;45.186;19.958;2024-03-07T01:15:02;30.40;;;21.07;;
56481;SDS011;42384;45.186;19.958;2024-03-07T01:17:32;33.92;;;21.35;;
56481;SDS011;42384;45.186;19.958;2024-03-07T01:19:58;30.13;;;20.50;;
56481;SDS011;42384;45.186;19.958;2024-03-07T01:22:25;32.43;;;21.57;;
56481;SDS011;42384;45.186;19.958;2024-03-07T01:24:51;29.43;;;20.40;;
56481;SDS011;42384;45.186;19.958;2024-03-07T01:27:17;33.77;;;22.20;;
56481;SDS011;42384;45.186;19.958;2024-03-07T01:29:43;30.57;;;21.03;;
56481;SDS011;42384;45.186;19.958;2024-03-07T01:32:10;29.53;;;20.03;;
56481;SDS011;42384;45.186;19.958;2024-03-07T01:34:36;29.50;;;20.60;;
56481;SDS011;42384;45.186;19.958;2024-03-07T01:37:02;37.13;;;20.00;;
56481;SDS011;42384;45.186;19.958;2024-03-07T01:39:29;33.43;;;20.67;;
56481;SDS011;42384;45.186;19.958;2024-03-07T01:41:55;30.73;;;20.60;;
56481;SDS011;42384;45.186;19.958;2024-03-07T01:44:21;33.93;;;21.77;;
56481;SDS011;42384;45.186;19.958;2024-03-07T01:46:48;32.78;;;21.00;;
56481;SDS011;42384;45.186;19.958;2024-03-07T01:49:15;33.90;;;20.25;;
56481;SDS011;42384;45.186;19.958;2024-03-07T01:51:42;30.73;;;20.93;;
56481;SDS011;42384;45.186;19.958;2024-03-07T01:54:08;30.95;;;20.23;;
56481;SDS011;42384;45.186;19.958;2024-03-07T01:56:36;39.67;;;23.20;;
56481;SDS011;42384;45.186;19.958;2024-03-07T01:59:03;34.10;;;22.42;;
56481;SDS011;42384;45.186;19.958;2024-03-07T02:01:30;39.83;;;25.00;;
56481;SDS011;42384;45.186;19.958;2024-03-07T02:03:57;39.60;;;25.13;;
56481;SDS011;42384;45.186;19.958;2024-03-07T02:06:23;40.55;;;24.02;;
56481;SDS011;42384;45.186;19.958;2024-03-07T02:08:50;41.97;;;25.38;;
56481;SDS011;42384;45.186;19.958;2024-03-07T02:11:16;45.40;;;26.03;;
56481;SDS011;42384;45.186;19.958;2024-03-07T02:13:43;43.38;;;25.25;;
56481;SDS011;42384;45.186;19.958;2024-03-07T02:16:09;37.93;;;24.07;;
56481;SDS011;42384;45.186;19.958;2024-03-07T02:18:35;46.63;;;24.63;;
56481;SDS011;42384;45.186;19.958;2024-03-07T02:21:09;41.30;;;23.85;;
56481;SDS011;42384;45.186;19.958;2024-03-07T02:23:37;49.33;;;28.33;;
56481;SDS011;42384;45.186;19.958;2024-03-07T02:26:03;46.10;;;26.55;;
56481;SDS011;42384;45.186;19.958;2024-03-07T02:28:29;49.80;;;26.70;;
56481;SDS011;42384;45.186;19.958;2024-03-07T02:30:56;48.63;;;25.77;;
56481;SDS011;42384;45.186;19.958;2024-03-07T02:33:22;49.17;;;25.93;;
56481;SDS011;42384;45.186;19.958;2024-03-07T02:35:49;47.45;;;26.10;;
56481;SDS011;42384;45.186;19.958;2024-03-07T02:38:15;48.50;;;28.05;;
56481;SDS011;42384;45.186;19.958;2024-03-07T02:40:43;42.03;;;24.58;;
56481;SDS011;42384;45.186;19.958;2024-03-07T02:43:09;40.47;;;24.30;;
56481;SDS011;42384;45.186;19.958;2024-03-07T02:45:35;44.22;;;25.48;;
56481;SDS011;42384;45.186;19.958;2024-03-07T02:48:02;44.72;;;25.27;;
56481;SDS011;42384;45.186;19.958;2024-03-07T02:50:29;46.67;;;28.00;;
56481;SDS011;42384;45.186;19.958;2024-03-07T02:52:55;51.13;;;29.03;;
56481;SDS011;42384;45.186;19.958;2024-03-07T02:55:22;45.28;;;28.17;;
56481;SDS011;42384;45.186;19.958;2024-03-07T02:57:48;48.50;;;27.57;;
56481;SDS011;42384;45.186;19.958;2024-03-07T03:00:15;48.08;;;27.65;;
56481;SDS011;42384;45.186;19.958;2024-03-07T03:02:48;45.22;;;27.10;;
56481;SDS011;42384;45.186;19.958;2024-03-07T03:05:14;45.70;;;25.60;;
56481;SDS011;42384;45.186;19.958;2024-03-07T03:07:41;42.20;;;25.67;;
56481;SDS011;42384;45.186;19.958;2024-03-07T03:10:24;47.70;;;27.13;;
56481;SDS011;42384;45.186;19.958;2024-03-07T03:12:59;45.95;;;26.92;;
56481;SDS011;42384;45.186;19.958;2024-03-07T03:15:26;44.25;;;26.33;;
56481;SDS011;42384;45.186;19.958;2024-03-07T03:17:52;49.50;;;26.43;;
56481;SDS011;42384;45.186;19.958;2024-03-07T03:20:18;43.63;;;27.33;;
56481;SDS011;42384;45.186;19.958;2024-03-07T03:22:54;47.13;;;25.38;;
56481;SDS011;42384;45.186;19.958;2024-03-07T03:25:20;47.83;;;26.55;;
56481;SDS011;42384;45.186;19.958;2024-03-07T03:27:49;43.38;;;26.02;;
56481;SDS011;42384;45.186;19.958;2024-03-07T03:30:15;44.65;;;27.08;;
56481;SDS011;42384;45.186;19.958;2024-03-07T03:32:46;41.35;;;25.63;;
56481;SDS011;42384;45.186;19.958;2024-03-07T03:35:15;45.20;;;27.13;;
56481;SDS011;42384;45.186;19.958;2024-03-07T03:37:42;44.10;;;26.48;;
56481;SDS011;42384;45.186;19.958;2024-03-07T03:42:36;43.80;;;27.00;;
56481;SDS011;42384;45.186;19.958;2024-03-07T03:47:37;38.92;;;26.40;;
56481;SDS011;42384;45.186;19.958;2024-03-07T03:50:07;38.88;;;24.83;;
56481;SDS011;42384;45.186;19.958;2024-03-07T03:52:34;35.88;;;23.95;;
56481;SDS011;42384;45.186;19.958;2024-03-07T03:55:00;36.10;;;24.67;;
56481;SDS011;42384;45.186;19.958;2024-03-07T03:57:27;40.70;;;24.95;;
56481;SDS011;42384;45.186;19.958;2024-03-07T03:59:54;39.00;;;25.05;;
56481;SDS011;42384;45.186;19.958;2024-03-07T04:02:21;39.13;;;25.92;;
56481;SDS011;42384;45.186;19.958;2024-03-07T04:04:48;45.20;;;28.58;;
56481;SDS011;42384;45.186;19.958;2024-03-07T04:07:14;44.30;;;27.50;;
56481;SDS011;42384;45.186;19.958;2024-03-07T04:09:41;45.35;;;28.80;;
56481;SDS011;42384;45.186;19.958;2024-03-07T04:12:09;36.92;;;25.13;;
56481;SDS011;42384;45.186;19.958;2024-03-07T04:14:41;38.00;;;26.70;;
56481;SDS011;42384;45.186;19.958;2024-03-07T04:17:07;40.38;;;27.48;;
56481;SDS011;42384;45.186;19.958;2024-03-07T04:19:35;39.95;;;26.50;;
56481;SDS011;42384;45.186;19.958;2024-03-07T04:24:31;42.30;;;29.70;;
56481;SDS011;42384;45.186;19.958;2024-03-07T04:27:01;49.63;;;32.33;;
56481;SDS011;42384;45.186;19.958;2024-03-07T04:29:31;49.00;;;32.75;;
56481;SDS011;42384;45.186;19.958;2024-03-07T04:31:58;51.13;;;34.00;;
56481;SDS011;42384;45.186;19.958;2024-03-07T04:34:24;51.40;;;34.10;;
56481;SDS011;42384;45.186;19.958;2024-03-07T04:36:51;45.22;;;32.22;;
56481;SDS011;42384;45.186;19.958;2024-03-07T04:39:17;51.33;;;33.70;;
56481;SDS011;42384;45.186;19.958;2024-03-07T04:42:02;49.28;;;34.30;;
56481;SDS011;42384;45.186;19.958;2024-03-07T04:44:29;50.33;;;32.80;;
56481;SDS011;42384;45.186;19.958;2024-03-07T04:46:57;49.10;;;33.63;;
56481;SDS011;42384;45.186;19.958;2024-03-07T04:49:24;48.72;;;34.10;;
56481;SDS011;42384;45.186;19.958;2024-03-07T04:51:51;46.60;;;33.10;;
56481;SDS011;42384;45.186;19.958;2024-03-07T04:54:17;51.80;;;34.13;;
56481;SDS011;42384;45.186;19.958;2024-03-07T04:56:44;48.17;;;34.45;;
56481;SDS011;42384;45.186;19.958;2024-03-07T04:59:11;51.28;;;32.97;;
56481;SDS011;42384;45.186;19.958;2024-03-07T05:01:38;49.38;;;33.47;;
56481;SDS011;42384;45.186;19.958;2024-03-07T05:04:04;55.00;;;34.47;;
56481;SDS011;42384;45.186;19.958;2024-03-07T05:06:31;54.33;;;33.28;;
56481;SDS011;42384;45.186;19.958;2024-03-07T05:09:00;49.25;;;31.33;;
56481;SDS011;42384;45.186;19.958;2024-03-07T05:11:28;52.67;;;31.55;;
56481;SDS011;42384;45.186;19.958;2024-03-07T05:13:54;51.08;;;31.33;;
56481;SDS011;42384;45.186;19.958;2024-03-07T05:16:21;51.53;;;29.53;;
56481;SDS011;42384;45.186;19.958;2024-03-07T05:18:47;44.03;;;27.63;;
56481;SDS011;42384;45.186;19.958;2024-03-07T05:21:15;45.78;;;28.17;;
56481;SDS011;42384;45.186;19.958;2024-03-07T05:24:00;45.38;;;27.17;;
56481;SDS011;42384;45.186;19.958;2024-03-07T05:26:28;48.53;;;27.02;;
56481;SDS011;42384;45.186;19.958;2024-03-07T05:29:09;49.05;;;27.48;;
56481;SDS011;42384;45.186;19.958;2024-03-07T05:31:36;44.80;;;25.55;;
56481;SDS011;42384;45.186;19.958;2024-03-07T05:34:06;47.33;;;26.48;;
56481;SDS011;42384;45.186;19.958;2024-03-07T05:36:35;43.58;;;25.08;;
56481;SDS011;42384;45.186;19.958;2024-03-07T05:39:09;45.30;;;26.30;;
56481;SDS011;42384;45.186;19.958;2024-03-07T05:41:39;45.92;;;25.60;;
56481;SDS011;42384;45.186;19.958;2024-03-07T05:44:06;41.88;;;26.15;;
56481;SDS011;42384;45.186;19.958;2024-03-07T05:46:42;47.97;;;26.52;;
56481;SDS011;42384;45.186;19.958;2024-03-07T05:49:13;44.25;;;26.20;;
56481;SDS011;42384;45.186;19.958;2024-03-07T05:51:40;45.38;;;26.80;;
56481;SDS011;42384;45.186;19.958;2024-03-07T05:54:13;44.03;;;26.25;;
56481;SDS011;42384;45.186;19.958;2024-03-07T05:56:40;49.83;;;27.10;;
56481;SDS011;42384;45.186;19.958;2024-03-07T05:59:06;47.20;;;27.67;;
56481;SDS011;42384;45.186;19.958;2024-03-07T06:01:35;51.25;;;27.15;;
56481;SDS011;42384;45.186;19.958;2024-03-07T06:04:01;55.45;;;28.63;;
56481;SDS011;42384;45.186;19.958;2024-03-07T06:06:30;48.22;;;26.63;;
56481;SDS011;42384;45.186;19.958;2024-03-07T06:08:58;50.60;;;27.92;;
56481;SDS011;42384;45.186;19.958;2024-03-07T06:11:24;48.45;;;26.75;;
56481;SDS011;42384;45.186;19.958;2024-03-07T06:13:51;44.67;;;26.43;;
56481;SDS011;42384;45.186;19.958;2024-03-07T06:16:17;46.13;;;27.00;;
56481;SDS011;42384;45.186;19.958;2024-03-07T06:18:44;50.35;;;26.45;;
56481;SDS011;42384;45.186;19.958;2024-03-07T06:21:12;46.17;;;25.92;;
56481;SDS011;42384;45.186;19.958;2024-03-07T06:23:38;44.83;;;26.17;;
56481;SDS011;42384;45.186;19.958;2024-03-07T06:26:05;53.05;;;29.75;;
56481;SDS011;42384;45.186;19.958;2024-03-07T06:28:38;49.63;;;29.75;;
56481;SDS011;42384;45.186;19.958;2024-03-07T06:31:05;43.28;;;26.38;;
56481;SDS011;42384;45.186;19.958;2024-03-07T06:33:33;48.70;;;27.20;;
56481;SDS011;42384;45.186;19.958;2024-03-07T06:35:59;38.47;;;23.50;;
56481;SDS011;42384;45.186;19.958;2024-03-07T06:38:26;41.25;;;23.65;;
56481;SDS011;42384;45.186;19.958;2024-03-07T06:40:52;44.10;;;24.90;;
56481;SDS011;42384;45.186;19.958;2024-03-07T06:43:19;38.17;;;22.73;;
56481;SDS011;42384;45.186;19.958;2024-03-07T06:45:45;39.67;;;22.53;;
56481;SDS011;42384;45.186;19.958;2024-03-07T06:48:11;41.17;;;23.33;;
56481;SDS011;42384;45.186;19.958;2024-03-07T06:50:39;42.63;;;24.35;;
56481;SDS011;42384;45.186;19.958;2024-03-07T06:53:06;37.75;;;21.80;;
56481;SDS011;42384;45.186;19.958;2024-03-07T06:55:32;26.25;;;17.52;;
56481;SDS011;42384;45.186;19.958;2024-03-07T06:57:59;20.52;;;13.57;;
56481;SDS011;42384;45.186;19.958;2024-03-07T07:00:25;14.73;;;10.63;;
56481;SDS011;42384;45.186;19.958;2024-03-07T07:02:52;13.73;;;10.17;;
56481;SDS011;42384;45.186;19.958;2024-03-07T07:05:20;13.27;;;9.98;;
56481;SDS011;42384;45.186;19.958;2024-03-07T07:07:49;15.93;;;9.55;;
56481;SDS011;42384;45.186;19.958;2024-03-07T07:10:19;11.63;;;9.25;;
56481;SDS011;42384;45.186;19.958;2024-03-07T07:12:48;13.90;;;10.05;;
56481;SDS011;42384;45.186;19.958;2024-03-07T07:15:16;14.90;;;10.43;;
56481;SDS011;42384;45.186;19.958;2024-03-07T07:17:46;14.35;;;10.07;;
56481;SDS011;42384;45.186;19.958;2024-03-07T07:20:16;13.75;;;9.88;;
56481;SDS011;42384;45.186;19.958;2024-03-07T07:22:43;14.55;;;10.60;;
56481;SDS011;42384;45.186;19.958;2024-03-07T07:25:10;11.88;;;9.43;;
56481;SDS011;42384;45.186;19.958;2024-03-07T07:27:45;13.07;;;9.35;;
56481;SDS011;42384;45.186;19.958;2024-03-07T07:30:13;13.95;;;10.00;;
56481;SDS011;42384;45.186;19.958;2024-03-07T07:32:40;11.38;;;8.70;;
56481;SDS011;42384;45.186;19.958;2024-03-07T07:35:08;16.38;;;10.48;;
56481;SDS011;42384;45.186;19.958;2024-03-07T07:37:43;12.07;;;10.60;;
56481;SDS011;42384;45.186;19.958;2024-03-07T07:40:10;14.65;;;11.07;;
56481;SDS011;42384;45.186;19.958;2024-03-07T07:42:43;15.90;;;11.50;;
56481;SDS011;42384;45.186;19.958;2024-03-07T07:45:12;14.07;;;10.52;;
56481;SDS011;42384;45.186;19.958;2024-03-07T07:47:38;14.65;;;11.10;;
56481;SDS011;42384;45.186;19.958;2024-03-07T07:50:08;16.50;;;11.30;;
56481;SDS011;42384;45.186;19.958;2024-03-07T07:52:45;16.75;;;12.95;;
56481;SDS011;42384;45.186;19.958;2024-03-07T07:55:22;15.93;;;11.68;;
56481;SDS011;42384;45.186;19.958;2024-03-07T07:57:52;14.70;;;10.95;;
56481;SDS011;42384;45.186;19.958;2024-03-07T08:00:19;16.40;;;11.70;;
56481;SDS011;42384;45.186;19.958;2024-03-07T08:02:55;16.60;;;12.25;;
56481;SDS011;42384;45.186;19.958;2024-03-07T08:05:26;17.23;;;11.65;;
56481;SDS011;42384;45.186;19.958;2024-03-07T08:07:53;13.30;;;10.50;;
56481;SDS011;42384;45.186;19.958;2024-03-07T08:10:20;16.60;;;10.65;;
56481;SDS011;42384;45.186;19.958;2024-03-07T08:12:48;13.57;;;9.85;;
56481;SDS011;42384;45.186;19.958;2024-03-07T08:15:15;12.45;;;9.43;;
56481;SDS011;42384;45.186;19.958;2024-03-07T08:17:44;14.52;;;9.60;;
56481;SDS011;42384;45.186;19.958;2024-03-07T08:20:12;13.52;;;9.63;;
56481;SDS011;42384;45.186;19.958;2024-03-07T08:22:39;12.80;;;9.65;;
56481;SDS011;42384;45.186;19.958;2024-03-07T08:25:07;16.00;;;10.40;;
56481;SDS011;42384;45.186;19.958;2024-03-07T08:27:35;14.65;;;9.73;;
56481;SDS011;42384;45.186;19.958;2024-03-07T08:32:27;13.35;;;9.65;;
56481;SDS011;42384;45.186;19.958;2024-03-07T08:34:54;11.73;;;10.03;;
56481;SDS011;42384;45.186;19.958;2024-03-07T08:37:20;12.87;;;9.43;;
56481;SDS011;42384;45.186;19.958;2024-03-07T08:39:46;11.52;;;9.90;;
56481;SDS011;42384;45.186;19.958;2024-03-07T08:42:13;13.35;;;9.68;;
56481;SDS011;42384;45.186;19.958;2024-03-07T08:44:41;13.32;;;9.93;;
56481;SDS011;42384;45.186;19.958;2024-03-07T08:47:08;13.93;;;9.83;;
56481;SDS011;42384;45.186;19.958;2024-03-07T08:49:35;13.07;;;9.55;;
56481;SDS011;42384;45.186;19.958;2024-03-07T08:52:01;10.68;;;8.90;;
56481;SDS011;42384;45.186;19.958;2024-03-07T08:54:28;9.98;;;8.15;;
56481;SDS011;42384;45.186;19.958;2024-03-07T08:56:54;11.38;;;7.97;;
56481;SDS011;42384;45.186;19.958;2024-03-07T08:59:20;8.20;;;7.00;;
56481;SDS011;42384;45.186;19.958;2024-03-07T09:01:47;12.40;;;8.98;;
56481;SDS011;42384;45.186;19.958;2024-03-07T09:04:14;11.87;;;9.07;;
56481;SDS011;42384;45.186;19.958;2024-03-07T09:06:43;10.73;;;7.28;;
56481;SDS011;42384;45.186;19.958;2024-03-07T09:09:11;10.93;;;7.68;;
56481;SDS011;42384;45.186;19.958;2024-03-07T09:11:39;10.65;;;8.73;;
56481;SDS011;42384;45.186;19.958;2024-03-07T09:14:07;11.77;;;8.48;;
56481;SDS011;42384;45.186;19.958;2024-03-07T09:16:35;10.98;;;8.40;;
56481;SDS011;42384;45.186;19.958;2024-03-07T09:19:01;12.07;;;9.10;;
56481;SDS011;42384;45.186;19.958;2024-03-07T09:21:28;12.85;;;8.43;;
56481;SDS011;42384;45.186;19.958;2024-03-07T09:23:54;12.60;;;8.52;;
56481;SDS011;42384;45.186;19.958;2024-03-07T09:26:21;13.33;;;10.37;;
56481;SDS011;42384;45.186;19.958;2024-03-07T09:28:47;15.77;;;9.50;;
56481;SDS011;42384;45.186;19.958;2024-03-07T09:31:16;11.07;;;9.05;;
56481;SDS011;42384;45.186;19.958;2024-03-07T09:33:42;10.18;;;8.93;;
56481;SDS011;42384;45.186;19.958;2024-03-07T09:36:09;9.37;;;8.27;;
56481;SDS011;42384;45.186;19.958;2024-03-07T09:38:35;11.03;;;9.23;;
56481;SDS011;42384;45.186;19.958;2024-03-07T09:41:01;11.70;;;8.03;;
56481;SDS011;42384;45.186;19.958;2024-03-07T09:43:27;9.48;;;8.00;;
56481;SDS011;42384;45.186;19.958;2024-03-07T09:45:54;11.97;;;8.93;;
56481;SDS011;42384;45.186;19.958;2024-03-07T09:48:21;10.43;;;8.40;;
56481;SDS011;42384;45.186;19.958;2024-03-07T09:50:50;10.15;;;8.50;;
56481;SDS011;42384;45.186;19.958;2024-03-07T09:53:18;8.90;;;7.60;;
56481;SDS011;42384;45.186;19.958;2024-03-07T09:55:45;10.30;;;8.25;;
56481;SDS011;42384;45.186;19.958;2024-03-07T09:58:12;10.93;;;8.75;;
56481;SDS011;42384;45.186;19.958;2024-03-07T10:00:42;12.35;;;8.63;;
56481;SDS011;42384;45.186;19.958;2024-03-07T10:03:08;10.73;;;8.23;;
56481;SDS011;42384;45.186;19.958;2024-03-07T10:05:36;10.18;;;7.90;;
56481;SDS011;42384;45.186;19.958;2024-03-07T10:08:04;9.45;;;8.00;;
56481;SDS011;42384;45.186;19.958;2024-03-07T10:10:30;10.77;;;8.73;;
56481;SDS011;42384;45.186;19.958;2024-03-07T10:12:56;10.32;;;7.13;;
56481;SDS011;42384;45.186;19.958;2024-03-07T10:17:50;11.85;;;7.55;;
56481;SDS011;42384;45.186;19.958;2024-03-07T10:20:17;11.87;;;7.37;;
56481;SDS011;42384;45.186;19.958;2024-03-07T10:22:45;9.60;;;7.38;;
56481;SDS011;42384;45.186;19.958;2024-03-07T10:25:11;10.10;;;7.32;;
56481;SDS011;42384;45.186;19.958;2024-03-07T10:27:38;11.23;;;8.10;;
56481;SDS011;42384;45.186;19.958;2024-03-07T10:30:04;10.77;;;7.93;;
56481;SDS011;42384;45.186;19.958;2024-03-07T10:32:32;11.40;;;8.35;;
56481;SDS011;42384;45.186;19.958;2024-03-07T10:34:59;12.83;;;8.03;;
56481;SDS011;42384;45.186;19.958;2024-03-07T10:37:25;12.30;;;8.15;;
56481;SDS011;42384;45.186;19.958;2024-03-07T10:39:51;8.90;;;7.03;;
56481;SDS011;42384;45.186;19.958;2024-03-07T10:42:18;10.37;;;7.67;;
56481;SDS011;42384;45.186;19.958;2024-03-07T10:44:49;8.75;;;6.70;;
56481;SDS011;42384;45.186;19.958;2024-03-07T10:47:16;11.83;;;7.00;;
56481;SDS011;42384;45.186;19.958;2024-03-07T10:52:22;8.10;;;6.65;;
56481;SDS011;42384;45.186;19.958;2024-03-07T10:57:44;8.63;;;6.43;;
56481;SDS011;42384;45.186;19.958;2024-03-07T11:00:12;10.52;;;7.70;;
56481;SDS011;42384;45.186;19.958;2024-03-07T11:02:57;9.60;;;7.43;;
56481;SDS011;42384;45.186;19.958;2024-03-07T11:05:27;11.15;;;7.95;;
56481;SDS011;42384;45.186;19.958;2024-03-07T11:07:55;7.28;;;6.45;;
56481;SDS011;42384;45.186;19.958;2024-03-07T11:10:22;10.63;;;6.68;;
56481;SDS011;42384;45.186;19.958;2024-03-07T11:12:49;11.13;;;8.30;;
56481;SDS011;42384;45.186;19.958;2024-03-07T11:15:17;9.70;;;7.15;;
56481;SDS011;42384;45.186;19.958;2024-03-07T11:17:45;10.15;;;7.65;;
56481;SDS011;42384;45.186;19.958;2024-03-07T11:20:25;9.52;;;7.68;;
56481;SDS011;42384;45.186;19.958;2024-03-07T11:22:51;8.75;;;7.00;;
56481;SDS011;42384;45.186;19.958;2024-03-07T11:25:21;8.00;;;6.70;;
56481;SDS011;42384;45.186;19.958;2024-03-07T11:27:57;11.10;;;7.93;;
56481;SDS011;42384;45.186;19.958;2024-03-07T11:30:24;9.50;;;7.13;;
56481;SDS011;42384;45.186;19.958;2024-03-07T11:32:54;10.02;;;7.38;;
56481;SDS011;42384;45.186;19.958;2024-03-07T11:35:34;10.18;;;8.02;;
56481;SDS011;42384;45.186;19.958;2024-03-07T11:38:05;9.77;;;7.72;;
56481;SDS011;42384;45.186;19.958;2024-03-07T11:43:02;8.25;;;6.68;;
56481;SDS011;42384;45.186;19.958;2024-03-07T11:45:32;9.52;;;7.05;;
56481;SDS011;42384;45.186;19.958;2024-03-07T11:48:03;8.82;;;7.40;;
56481;SDS011;42384;45.186;19.958;2024-03-07T11:50:34;9.57;;;7.15;;
56481;SDS011;42384;45.186;19.958;2024-03-07T11:53:01;9.70;;;7.05;;
56481;SDS011;42384;45.186;19.958;2024-03-07T11:55:30;9.18;;;7.07;;
56481;SDS011;42384;45.186;19.958;2024-03-07T11:58:19;10.00;;;7.30;;
56481;SDS011;42384;45.186;19.958;2024-03-07T12:00:50;11.20;;;7.30;;
56481;SDS011;42384;45.186;19.958;2024-03-07T12:05:46;11.30;;;7.80;;
56481;SDS011;42384;45.186;19.958;2024-03-07T12:08:12;10.05;;;7.85;;
56481;SDS011;42384;45.186;19.958;2024-03-07T12:10:40;8.55;;;6.97;;
56481;SDS011;42384;45.186;19.958;2024-03-07T12:13:09;10.63;;;8.00;;
56481;SDS011;42384;45.186;19.958;2024-03-07T12:15:44;10.18;;;7.35;;
56481;SDS011;42384;45.186;19.958;2024-03-07T12:18:11;9.18;;;6.70;;
56481;SDS011;42384;45.186;19.958;2024-03-07T12:20:44;10.48;;;7.03;;
56481;SDS011;42384;45.186;19.958;2024-03-07T12:23:19;8.95;;;6.40;;
56481;SDS011;42384;45.186;19.958;2024-03-07T12:25:45;8.48;;;6.15;;
56481;SDS011;42384;45.186;19.958;2024-03-07T12:28:13;8.05;;;6.25;;
56481;SDS011;42384;45.186;19.958;2024-03-07T12:30:55;8.48;;;6.50;;
56481;SDS011;42384;45.186;19.958;2024-03-07T12:33:22;9.35;;;6.85;;
56481;SDS011;42384;45.186;19.958;2024-03-07T12:35:50;8.68;;;6.22;;
56481;SDS011;42384;45.186;19.958;2024-03-07T12:40:43;9.98;;;6.90;;
56481;SDS011;42384;45.186;19.958;2024-03-07T12:43:17;10.07;;;7.18;;
56481;SDS011;42384;45.186;19.958;2024-03-07T12:45:50;9.07;;;6.88;;
56481;SDS011;42384;45.186;19.958;2024-03-07T12:48:19;10.88;;;7.05;;
56481;SDS011;42384;45.186;19.958;2024-03-07T12:50:47;8.38;;;6.75;;
56481;SDS011;42384;45.186;19.958;2024-03-07T12:53:22;10.75;;;7.43;;
56481;SDS011;42384;45.186;19.958;2024-03-07T12:55:50;8.90;;;7.15;;
56481;SDS011;42384;45.186;19.958;2024-03-07T12:58:20;9.85;;;6.63;;
56481;SDS011;42384;45.186;19.958;2024-03-07T13:00:53;11.55;;;7.38;;
56481;SDS011;42384;45.186;19.958;2024-03-07T13:03:23;9.02;;;6.90;;
56481;SDS011;42384;45.186;19.958;2024-03-07T13:05:56;11.13;;;7.95;;
56481;SDS011;42384;45.186;19.958;2024-03-07T13:08:26;12.32;;;8.50;;
56481;SDS011;42384;45.186;19.958;2024-03-07T13:10:54;10.57;;;8.77;;
56481;SDS011;42384;45.186;19.958;2024-03-07T13:13:20;12.90;;;8.77;;
56481;SDS011;42384;45.186;19.958;2024-03-07T13:15:47;21.63;;;14.30;;
56481;SDS011;42384;45.186;19.958;2024-03-07T13:18:14;10.60;;;8.38;;
56481;SDS011;42384;45.186;19.958;2024-03-07T13:20:40;10.43;;;7.83;;
56481;SDS011;42384;45.186;19.958;2024-03-07T13:23:08;10.57;;;8.05;;
56481;SDS011;42384;45.186;19.958;2024-03-07T13:25:35;12.10;;;8.43;;
56481;SDS011;42384;45.186;19.958;2024-03-07T13:30:28;11.48;;;8.98;;
56481;SDS011;42384;45.186;19.958;2024-03-07T13:35:20;11.48;;;8.25;;
56481;SDS011;42384;45.186;19.958;2024-03-07T13:37:47;11.82;;;9.63;;
56481;SDS011;42384;45.186;19.958;2024-03-07T13:40:14;12.35;;;9.82;;
56481;SDS011;42384;45.186;19.958;2024-03-07T13:42:54;11.30;;;9.05;;
56481;SDS011;42384;45.186;19.958;2024-03-07T13:45:25;13.32;;;9.38;;
56481;SDS011;42384;45.186;19.958;2024-03-07T13:47:52;11.90;;;9.18;;
56481;SDS011;42384;45.186;19.958;2024-03-07T13:50:19;12.88;;;9.80;;
56481;SDS011;42384;45.186;19.958;2024-03-07T13:52:47;11.02;;;8.77;;
56481;SDS011;42384;45.186;19.958;2024-03-07T13:58:25;10.93;;;8.18;;
56481;SDS011;42384;45.186;19.958;2024-03-07T14:03:55;12.70;;;9.00;;
56481;SDS011;42384;45.186;19.958;2024-03-07T14:06:38;11.50;;;8.85;;
56481;SDS011;42384;45.186;19.958;2024-03-07T14:23:00;16.40;;;10.13;;
56481;SDS011;42384;45.186;19.958;2024-03-07T14:33:08;15.63;;;10.48;;
56481;SDS011;42384;45.186;19.958;2024-03-07T14:40:48;12.40;;;10.30;;
56481;SDS011;42384;45.186;19.958;2024-03-07T14:43:15;16.48;;;11.63;;
56481;SDS011;42384;45.186;19.958;2024-03-07T14:45:42;13.18;;;10.05;;
56481;SDS011;42384;45.186;19.958;2024-03-07T14:48:09;13.77;;;9.77;;
56481;SDS011;42384;45.186;19.958;2024-03-07T14:50:38;13.75;;;10.20;;
56481;SDS011;42384;45.186;19.958;2024-03-07T14:53:05;16.27;;;11.30;;
56481;SDS011;42384;45.186;19.958;2024-03-07T14:55:31;15.85;;;12.05;;
56481;SDS011;42384;45.186;19.958;2024-03-07T14:57:58;14.63;;;10.80;;
56481;SDS011;42384;45.186;19.958;2024-03-07T15:00:25;14.60;;;11.05;;
56481;SDS011;42384;45.186;19.958;2024-03-07T15:02:52;13.55;;;11.00;;
56481;SDS011;42384;45.186;19.958;2024-03-07T15:05:24;15.02;;;11.30;;
56481;SDS011;42384;45.186;19.958;2024-03-07T15:07:51;16.87;;;11.57;;
56481;SDS011;42384;45.186;19.958;2024-03-07T15:10:19;16.05;;;12.25;;
56481;SDS011;42384;45.186;19.958;2024-03-07T15:12:47;15.52;;;11.25;;
56481;SDS011;42384;45.186;19.958;2024-03-07T15:15:14;16.58;;;10.95;;
56481;SDS011;42384;45.186;19.958;2024-03-07T15:17:43;13.50;;;10.65;;
56481;SDS011;42384;45.186;19.958;2024-03-07T15:20:11;13.77;;;10.45;;
56481;SDS011;42384;45.186;19.958;2024-03-07T15:22:55;15.30;;;11.98;;
56481;SDS011;42384;45.186;19.958;2024-03-07T15:25:21;15.32;;;11.70;;
56481;SDS011;42384;45.186;19.958;2024-03-07T15:27:49;16.88;;;11.00;;
56481;SDS011;42384;45.186;19.958;2024-03-07T15:30:16;13.20;;;10.48;;